sensor_id;sensor_type;location;lat;lon;timestamp;temperature;humidity
51615;DHT22;37695;52.960;6.188;2024-01-30T01:20:04;6.20;99.90
51615;DHT22;37695;52.960;6.188;2024-01-30T01:25:01;6.20;99.90
51615;DHT22;37695;52.960;6.188;2024-01-30T01:49:25;6.00;99.90
51615;DHT22;37695;52.960;6.188;2024-01-30T01:51:55;6.00;99.90
51615;DHT22;37695;52.960;6.188;2024-01-30T02:06:35;5.80;99.90
51615;DHT22;37695;52.960;6.188;2024-01-30T02:11:28;8.70;99.90
51615;DHT22;37695;52.960;6.188;2024-01-30T02:21:17;5.80;99.90
51615;DHT22;37695;52.960;6.188;2024-01-30T03:41:42;6.20;99.90
51615;DHT22;37695;52.960;6.188;2024-01-30T04:01:14;6.50;99.90
51615;DHT22;37695;52.960;6.188;2024-01-30T05:24:06;6.40;99.90
51615;DHT22;37695;52.960;6.188;2024-01-30T07:11:20;10.40;99.90
51615;DHT22;37695;52.960;6.188;2024-01-30T07:26:01;7.50;99.90
51615;DHT22;37695;52.960;6.188;2024-01-30T07:35:46;7.40;99.90
51615;DHT22;37695;52.960;6.188;2024-01-30T07:55:23;7.60;99.90
51615;DHT22;37695;52.960;6.188;2024-01-30T08:02:53;7.60;99.90
51615;DHT22;37695;52.960;6.188;2024-01-30T08:15:07;7.50;99.90
51615;DHT22;37695;52.960;6.188;2024-01-30T08:49:16;8.20;99.90
51615;DHT22;37695;52.960;6.188;2024-01-30T09:11:12;8.50;99.90
51615;DHT22;37695;52.960;6.188;2024-01-30T09:45:18;9.30;99.90
51615;DHT22;37695;52.960;6.188;2024-01-30T09:47:45;9.30;99.90
51615;DHT22;37695;52.960;6.188;2024-01-30T09:50:12;9.20;99.90
51615;DHT22;37695;52.960;6.188;2024-01-30T09:55:05;9.50;99.90
51615;DHT22;37695;52.960;6.188;2024-01-30T10:07:20;9.90;99.90
51615;DHT22;37695;52.960;6.188;2024-01-30T10:09:46;9.80;99.90
51615;DHT22;37695;52.960;6.188;2024-01-30T10:12:12;9.80;99.90
51615;DHT22;37695;52.960;6.188;2024-01-30T10:14:39;9.90;99.90
51615;DHT22;37695;52.960;6.188;2024-01-30T10:17:06;9.80;99.90
51615;DHT22;37695;52.960;6.188;2024-01-30T10:19:32;9.80;99.90
51615;DHT22;37695;52.960;6.188;2024-01-30T10:22:00;9.80;99.90
51615;DHT22;37695;52.960;6.188;2024-01-30T10:24:26;9.80;99.90
51615;DHT22;37695;52.960;6.188;2024-01-30T10:26:52;9.80;99.90
51615;DHT22;37695;52.960;6.188;2024-01-30T10:29:18;9.80;99.90
51615;DHT22;37695;52.960;6.188;2024-01-30T10:31:44;9.90;99.90
51615;DHT22;37695;52.960;6.188;2024-01-30T10:34:09;10.00;99.90
51615;DHT22;37695;52.960;6.188;2024-01-30T10:36:40;10.00;99.90
51615;DHT22;37695;52.960;6.188;2024-01-30T10:39:09;10.10;99.90
51615;DHT22;37695;52.960;6.188;2024-01-30T10:41:43;10.10;99.90
51615;DHT22;37695;52.960;6.188;2024-01-30T10:44:10;10.20;99.90
51615;DHT22;37695;52.960;6.188;2024-01-30T10:46:38;10.20;99.90
51615;DHT22;37695;52.960;6.188;2024-01-30T10:49:04;10.30;99.90
51615;DHT22;37695;52.960;6.188;2024-01-30T10:51:31;10.30;99.90
51615;DHT22;37695;52.960;6.188;2024-01-30T10:53:57;10.30;99.90
51615;DHT22;37695;52.960;6.188;2024-01-30T10:56:24;10.40;99.90
51615;DHT22;37695;52.960;6.188;2024-01-30T10:58:51;10.40;99.90
51615;DHT22;37695;52.960;6.188;2024-01-30T11:01:22;10.50;99.90
51615;DHT22;37695;52.960;6.188;2024-01-30T11:03:55;10.50;99.90
51615;DHT22;37695;52.960;6.188;2024-01-30T11:06:25;10.50;99.90
51615;DHT22;37695;52.960;6.188;2024-01-30T11:09:04;10.40;99.90
51615;DHT22;37695;52.960;6.188;2024-01-30T11:12:12;10.40;99.90
51615;DHT22;37695;52.960;6.188;2024-01-30T11:14:30;10.20;99.90
51615;DHT22;37695;52.960;6.188;2024-01-30T11:16:59;10.20;99.90
51615;DHT22;37695;52.960;6.188;2024-01-30T11:19:26;10.10;99.90
51615;DHT22;37695;52.960;6.188;2024-01-30T11:21:55;10.00;99.90
51615;DHT22;37695;52.960;6.188;2024-01-30T11:24:23;10.00;99.90
51615;DHT22;37695;52.960;6.188;2024-01-30T11:26:58;10.00;99.90
51615;DHT22;37695;52.960;6.188;2024-01-30T11:29:28;9.90;99.90
51615;DHT22;37695;52.960;6.188;2024-01-30T11:31:54;9.80;99.90
51615;DHT22;37695;52.960;6.188;2024-01-30T11:34:21;9.80;99.90
51615;DHT22;37695;52.960;6.188;2024-01-30T11:36:56;9.70;99.90
51615;DHT22;37695;52.960;6.188;2024-01-30T11:39:25;9.70;99.90
51615;DHT22;37695;52.960;6.188;2024-01-30T11:41:52;9.70;99.90
51615;DHT22;37695;52.960;6.188;2024-01-30T11:44:22;9.70;99.90
51615;DHT22;37695;52.960;6.188;2024-01-30T11:46:48;9.60;99.90
51615;DHT22;37695;52.960;6.188;2024-01-30T11:49:15;9.60;99.90
51615;DHT22;37695;52.960;6.188;2024-01-30T11:51:41;9.90;99.90
51615;DHT22;37695;52.960;6.188;2024-01-30T11:54:07;9.70;99.90
51615;DHT22;37695;52.960;6.188;2024-01-30T11:56:33;10.10;99.90
51615;DHT22;37695;52.960;6.188;2024-01-30T11:58:59;9.60;99.90
51615;DHT22;37695;52.960;6.188;2024-01-30T12:01:26;9.50;99.90
51615;DHT22;37695;52.960;6.188;2024-01-30T12:03:52;9.60;99.90
51615;DHT22;37695;52.960;6.188;2024-01-30T12:06:18;9.60;99.90
51615;DHT22;37695;52.960;6.188;2024-01-30T12:08:56;9.70;99.90
51615;DHT22;37695;52.960;6.188;2024-01-30T12:11:22;9.90;99.90
51615;DHT22;37695;52.960;6.188;2024-01-30T12:13:47;9.70;99.90
51615;DHT22;37695;52.960;6.188;2024-01-30T12:16:13;9.70;99.90
51615;DHT22;37695;52.960;6.188;2024-01-30T12:18:39;9.70;99.90
51615;DHT22;37695;52.960;6.188;2024-01-30T12:21:05;9.80;99.90
51615;DHT22;37695;52.960;6.188;2024-01-30T12:23:30;9.90;99.90
51615;DHT22;37695;52.960;6.188;2024-01-30T12:25:56;10.00;99.90
51615;DHT22;37695;52.960;6.188;2024-01-30T12:28:22;10.00;99.90
51615;DHT22;37695;52.960;6.188;2024-01-30T12:30:48;10.00;99.90
51615;DHT22;37695;52.960;6.188;2024-01-30T12:33:17;9.80;99.90
51615;DHT22;37695;52.960;6.188;2024-01-30T12:35:47;9.90;99.90
51615;DHT22;37695;52.960;6.188;2024-01-30T12:38:14;9.80;99.90
51615;DHT22;37695;52.960;6.188;2024-01-30T12:40:40;9.90;99.90
51615;DHT22;37695;52.960;6.188;2024-01-30T12:43:05;9.90;99.90
51615;DHT22;37695;52.960;6.188;2024-01-30T12:45:31;9.90;99.90
51615;DHT22;37695;52.960;6.188;2024-01-30T12:47:57;10.10;99.90
51615;DHT22;37695;52.960;6.188;2024-01-30T12:50:23;10.10;99.90
51615;DHT22;37695;52.960;6.188;2024-01-30T12:52:49;10.20;99.90
51615;DHT22;37695;52.960;6.188;2024-01-30T12:55:15;10.30;99.90
51615;DHT22;37695;52.960;6.188;2024-01-30T12:57:40;10.40;99.90
51615;DHT22;37695;52.960;6.188;2024-01-30T13:00:07;10.40;99.90
51615;DHT22;37695;52.960;6.188;2024-01-30T13:02:36;10.40;99.90
51615;DHT22;37695;52.960;6.188;2024-01-30T13:05:03;10.40;99.90
51615;DHT22;37695;52.960;6.188;2024-01-30T13:07:30;10.30;99.90
51615;DHT22;37695;52.960;6.188;2024-01-30T13:09:56;10.20;99.90
51615;DHT22;37695;52.960;6.188;2024-01-30T13:12:27;10.20;99.90
51615;DHT22;37695;52.960;6.188;2024-01-30T13:14:54;10.20;99.90
51615;DHT22;37695;52.960;6.188;2024-01-30T13:17:19;10.10;99.90
51615;DHT22;37695;52.960;6.188;2024-01-30T13:19:45;10.20;99.90
51615;DHT22;37695;52.960;6.188;2024-01-30T13:22:11;10.10;99.90
51615;DHT22;37695;52.960;6.188;2024-01-30T13:24:36;10.00;99.90
51615;DHT22;37695;52.960;6.188;2024-01-30T13:27:02;10.00;99.90
51615;DHT22;37695;52.960;6.188;2024-01-30T13:29:31;10.00;99.90
51615;DHT22;37695;52.960;6.188;2024-01-30T13:31:56;9.80;99.90
51615;DHT22;37695;52.960;6.188;2024-01-30T13:34:22;9.80;99.90
51615;DHT22;37695;52.960;6.188;2024-01-30T13:36:48;9.80;99.90
51615;DHT22;37695;52.960;6.188;2024-01-30T13:39:14;9.90;99.90
51615;DHT22;37695;52.960;6.188;2024-01-30T13:41:42;9.70;99.90
51615;DHT22;37695;52.960;6.188;2024-01-30T13:44:08;9.60;99.90
51615;DHT22;37695;52.960;6.188;2024-01-30T13:46:35;9.50;99.90
51615;DHT22;37695;52.960;6.188;2024-01-30T13:49:01;9.50;99.90
51615;DHT22;37695;52.960;6.188;2024-01-30T13:51:27;9.50;99.90
51615;DHT22;37695;52.960;6.188;2024-01-30T13:53:53;9.90;99.90
51615;DHT22;37695;52.960;6.188;2024-01-30T13:56:20;9.80;99.90
51615;DHT22;37695;52.960;6.188;2024-01-30T13:58:49;9.60;99.90
51615;DHT22;37695;52.960;6.188;2024-01-30T14:01:18;9.60;99.90
51615;DHT22;37695;52.960;6.188;2024-01-30T14:03:44;9.20;99.90
51615;DHT22;37695;52.960;6.188;2024-01-30T14:06:10;9.50;99.90
51615;DHT22;37695;52.960;6.188;2024-01-30T14:08:36;9.10;99.90
51615;DHT22;37695;52.960;6.188;2024-01-30T14:11:02;9.10;99.90
51615;DHT22;37695;52.960;6.188;2024-01-30T14:13:28;9.10;99.90
51615;DHT22;37695;52.960;6.188;2024-01-30T14:15:55;9.10;99.90
51615;DHT22;37695;52.960;6.188;2024-01-30T14:18:21;9.60;99.90
51615;DHT22;37695;52.960;6.188;2024-01-30T14:20:46;9.10;99.90
51615;DHT22;37695;52.960;6.188;2024-01-30T14:23:12;9.00;99.90
51615;DHT22;37695;52.960;6.188;2024-01-30T14:25:38;9.70;99.90
51615;DHT22;37695;52.960;6.188;2024-01-30T14:28:03;9.00;99.90
51615;DHT22;37695;52.960;6.188;2024-01-30T14:30:29;8.20;99.90
51615;DHT22;37695;52.960;6.188;2024-01-30T14:32:55;8.80;99.90
51615;DHT22;37695;52.960;6.188;2024-01-30T14:35:21;10.00;99.90
51615;DHT22;37695;52.960;6.188;2024-01-30T14:37:47;9.50;99.90
51615;DHT22;37695;52.960;6.188;2024-01-30T14:40:12;9.40;99.90
51615;DHT22;37695;52.960;6.188;2024-01-30T14:42:38;8.90;99.90
51615;DHT22;37695;52.960;6.188;2024-01-30T14:45:05;8.80;99.90
51615;DHT22;37695;52.960;6.188;2024-01-30T14:47:31;8.80;99.90
51615;DHT22;37695;52.960;6.188;2024-01-30T14:49:57;9.80;99.90
51615;DHT22;37695;52.960;6.188;2024-01-30T14:52:23;9.90;99.90
51615;DHT22;37695;52.960;6.188;2024-01-30T14:54:49;9.80;99.90
51615;DHT22;37695;52.960;6.188;2024-01-30T14:57:14;8.70;99.90
51615;DHT22;37695;52.960;6.188;2024-01-30T14:59:40;10.00;99.90
51615;DHT22;37695;52.960;6.188;2024-01-30T15:02:06;9.20;99.90
51615;DHT22;37695;52.960;6.188;2024-01-30T15:04:32;9.70;99.90
51615;DHT22;37695;52.960;6.188;2024-01-30T15:06:57;9.50;99.90
51615;DHT22;37695;52.960;6.188;2024-01-30T15:09:23;9.50;99.90
51615;DHT22;37695;52.960;6.188;2024-01-30T15:11:51;8.70;99.90
51615;DHT22;37695;52.960;6.188;2024-01-30T15:14:17;9.30;99.90
51615;DHT22;37695;52.960;6.188;2024-01-30T15:16:43;9.30;99.90
51615;DHT22;37695;52.960;6.188;2024-01-30T15:19:09;9.50;99.90
51615;DHT22;37695;52.960;6.188;2024-01-30T15:21:34;9.70;99.90
51615;DHT22;37695;52.960;6.188;2024-01-30T15:24:00;9.80;99.90
51615;DHT22;37695;52.960;6.188;2024-01-30T15:26:26;9.50;99.90
51615;DHT22;37695;52.960;6.188;2024-01-30T15:28:52;9.60;99.90
51615;DHT22;37695;52.960;6.188;2024-01-30T15:31:17;8.70;99.90
51615;DHT22;37695;52.960;6.188;2024-01-30T15:33:43;8.60;99.90
51615;DHT22;37695;52.960;6.188;2024-01-30T15:36:10;9.50;99.90
51615;DHT22;37695;52.960;6.188;2024-01-30T15:38:38;10.00;99.90
51615;DHT22;37695;52.960;6.188;2024-01-30T15:41:04;9.90;99.90
51615;DHT22;37695;52.960;6.188;2024-01-30T15:43:30;9.60;99.90
51615;DHT22;37695;52.960;6.188;2024-01-30T15:46:00;9.80;99.90
51615;DHT22;37695;52.960;6.188;2024-01-30T15:48:29;8.50;99.90
51615;DHT22;37695;52.960;6.188;2024-01-30T15:50:55;9.80;99.90
51615;DHT22;37695;52.960;6.188;2024-01-30T15:53:21;9.80;99.90
51615;DHT22;37695;52.960;6.188;2024-01-30T15:55:47;8.40;99.90
51615;DHT22;37695;52.960;6.188;2024-01-30T15:58:13;9.10;99.90
51615;DHT22;37695;52.960;6.188;2024-01-30T16:00:39;9.30;99.90
51615;DHT22;37695;52.960;6.188;2024-01-30T16:03:05;9.50;99.90
51615;DHT22;37695;52.960;6.188;2024-01-30T16:05:31;9.20;99.90
51615;DHT22;37695;52.960;6.188;2024-01-30T16:07:57;9.20;99.90
51615;DHT22;37695;52.960;6.188;2024-01-30T16:10:22;8.20;99.90
51615;DHT22;37695;52.960;6.188;2024-01-30T16:12:48;9.30;99.90
51615;DHT22;37695;52.960;6.188;2024-01-30T16:15:14;9.40;99.90
51615;DHT22;37695;52.960;6.188;2024-01-30T16:17:41;8.00;99.90
51615;DHT22;37695;52.960;6.188;2024-01-30T16:20:07;8.70;99.90
51615;DHT22;37695;52.960;6.188;2024-01-30T16:22:33;7.90;99.90
51615;DHT22;37695;52.960;6.188;2024-01-30T16:24:59;8.00;99.90
51615;DHT22;37695;52.960;6.188;2024-01-30T16:27:25;9.00;99.90
51615;DHT22;37695;52.960;6.188;2024-01-30T16:29:50;9.20;99.90
51615;DHT22;37695;52.960;6.188;2024-01-30T16:32:16;9.30;99.90
51615;DHT22;37695;52.960;6.188;2024-01-30T16:34:42;9.30;99.90
51615;DHT22;37695;52.960;6.188;2024-01-30T16:37:10;7.90;99.90
51615;DHT22;37695;52.960;6.188;2024-01-30T16:39:35;7.80;99.90
51615;DHT22;37695;52.960;6.188;2024-01-30T16:42:01;9.00;99.90
51615;DHT22;37695;52.960;6.188;2024-01-30T16:44:27;7.70;99.90
51615;DHT22;37695;52.960;6.188;2024-01-30T16:46:53;8.50;99.90
51615;DHT22;37695;52.960;6.188;2024-01-30T16:49:18;9.20;99.90
51615;DHT22;37695;52.960;6.188;2024-01-30T16:51:44;8.60;99.90
51615;DHT22;37695;52.960;6.188;2024-01-30T16:54:11;9.00;99.90
51615;DHT22;37695;52.960;6.188;2024-01-30T16:56:36;7.70;99.90
51615;DHT22;37695;52.960;6.188;2024-01-30T16:59:02;9.10;99.90
51615;DHT22;37695;52.960;6.188;2024-01-30T17:01:27;9.20;99.90
51615;DHT22;37695;52.960;6.188;2024-01-30T17:03:53;8.80;99.90
51615;DHT22;37695;52.960;6.188;2024-01-30T17:06:19;8.80;99.90
51615;DHT22;37695;52.960;6.188;2024-01-30T17:08:44;9.10;99.90
51615;DHT22;37695;52.960;6.188;2024-01-30T17:11:10;8.50;99.90
51615;DHT22;37695;52.960;6.188;2024-01-30T17:13:36;8.80;99.90
51615;DHT22;37695;52.960;6.188;2024-01-30T17:16:02;9.20;99.90
51615;DHT22;37695;52.960;6.188;2024-01-30T17:18:29;7.60;99.90
51615;DHT22;37695;52.960;6.188;2024-01-30T17:20:55;9.30;99.90
51615;DHT22;37695;52.960;6.188;2024-01-30T17:23:21;7.70;99.90
51615;DHT22;37695;52.960;6.188;2024-01-30T17:25:50;7.50;99.90
51615;DHT22;37695;52.960;6.188;2024-01-30T17:28:16;7.40;99.90
51615;DHT22;37695;52.960;6.188;2024-01-30T17:30:42;9.00;99.90
51615;DHT22;37695;52.960;6.188;2024-01-30T17:33:07;7.40;99.90
51615;DHT22;37695;52.960;6.188;2024-01-30T17:35:37;7.50;99.90
51615;DHT22;37695;52.960;6.188;2024-01-30T17:38:03;7.30;99.90
51615;DHT22;37695;52.960;6.188;2024-01-30T17:40:29;7.40;99.90
51615;DHT22;37695;52.960;6.188;2024-01-30T17:42:55;6.00;99.90
51615;DHT22;37695;52.960;6.188;2024-01-30T17:45:21;7.30;99.90
51615;DHT22;37695;52.960;6.188;2024-01-30T17:47:47;8.30;99.90
51615;DHT22;37695;52.960;6.188;2024-01-30T17:50:13;8.10;99.90
51615;DHT22;37695;52.960;6.188;2024-01-30T17:52:38;7.30;99.90
51615;DHT22;37695;52.960;6.188;2024-01-30T17:55:04;7.30;99.90
51615;DHT22;37695;52.960;6.188;2024-01-30T17:57:30;7.40;99.90
51615;DHT22;37695;52.960;6.188;2024-01-30T17:59:55;8.40;99.90
51615;DHT22;37695;52.960;6.188;2024-01-30T18:02:21;7.30;99.90
51615;DHT22;37695;52.960;6.188;2024-01-30T18:04:47;7.40;99.90
51615;DHT22;37695;52.960;6.188;2024-01-30T18:07:13;9.00;99.90
51615;DHT22;37695;52.960;6.188;2024-01-30T18:09:40;7.30;99.90
51615;DHT22;37695;52.960;6.188;2024-01-30T18:12:06;7.40;99.90
51615;DHT22;37695;52.960;6.188;2024-01-30T18:14:32;7.20;99.90
51615;DHT22;37695;52.960;6.188;2024-01-30T18:16:57;7.20;99.90
51615;DHT22;37695;52.960;6.188;2024-01-30T18:19:23;8.90;99.90
51615;DHT22;37695;52.960;6.188;2024-01-30T18:21:49;7.20;99.90
51615;DHT22;37695;52.960;6.188;2024-01-30T18:24:14;7.20;99.90
51615;DHT22;37695;52.960;6.188;2024-01-30T18:26:41;8.40;99.90
51615;DHT22;37695;52.960;6.188;2024-01-30T18:29:06;8.30;99.90
51615;DHT22;37695;52.960;6.188;2024-01-30T18:31:33;7.20;99.90
51615;DHT22;37695;52.960;6.188;2024-01-30T18:33:59;7.10;99.90
51615;DHT22;37695;52.960;6.188;2024-01-30T18:36:24;7.00;99.90
51615;DHT22;37695;52.960;6.188;2024-01-30T18:38:51;7.20;99.90
51615;DHT22;37695;52.960;6.188;2024-01-30T18:41:17;7.20;99.90
51615;DHT22;37695;52.960;6.188;2024-01-30T18:43:46;7.00;99.90
51615;DHT22;37695;52.960;6.188;2024-01-30T18:46:11;7.10;99.90
51615;DHT22;37695;52.960;6.188;2024-01-30T18:48:37;8.70;99.90
51615;DHT22;37695;52.960;6.188;2024-01-30T18:51:06;7.10;99.90
51615;DHT22;37695;52.960;6.188;2024-01-30T18:53:32;7.00;99.90
51615;DHT22;37695;52.960;6.188;2024-01-30T18:55:57;7.10;99.90
51615;DHT22;37695;52.960;6.188;2024-01-30T18:58:23;7.10;99.90
51615;DHT22;37695;52.960;6.188;2024-01-30T19:00:49;7.10;99.90
51615;DHT22;37695;52.960;6.188;2024-01-30T19:03:17;7.00;99.90
51615;DHT22;37695;52.960;6.188;2024-01-30T19:05:44;8.70;99.90
51615;DHT22;37695;52.960;6.188;2024-01-30T19:08:10;8.50;99.90
51615;DHT22;37695;52.960;6.188;2024-01-30T19:10:36;7.70;99.90
51615;DHT22;37695;52.960;6.188;2024-01-30T19:13:02;8.70;99.90
51615;DHT22;37695;52.960;6.188;2024-01-30T19:15:29;7.00;99.90
51615;DHT22;37695;52.960;6.188;2024-01-30T19:17:54;8.60;99.90
51615;DHT22;37695;52.960;6.188;2024-01-30T19:20:20;7.70;99.90
51615;DHT22;37695;52.960;6.188;2024-01-30T19:22:48;7.10;99.90
51615;DHT22;37695;52.960;6.188;2024-01-30T19:25:14;7.00;99.90
51615;DHT22;37695;52.960;6.188;2024-01-30T19:27:40;7.00;99.90
51615;DHT22;37695;52.960;6.188;2024-01-30T19:30:07;6.90;99.90
51615;DHT22;37695;52.960;6.188;2024-01-30T19:32:37;6.90;99.90
51615;DHT22;37695;52.960;6.188;2024-01-30T19:35:03;6.80;99.90
51615;DHT22;37695;52.960;6.188;2024-01-30T19:37:29;6.80;99.90
51615;DHT22;37695;52.960;6.188;2024-01-30T19:39:58;7.10;99.90
51615;DHT22;37695;52.960;6.188;2024-01-30T19:42:24;6.90;99.90
51615;DHT22;37695;52.960;6.188;2024-01-30T19:44:49;8.10;99.90
51615;DHT22;37695;52.960;6.188;2024-01-30T19:47:15;8.10;99.90
51615;DHT22;37695;52.960;6.188;2024-01-30T19:49:40;6.70;99.90
51615;DHT22;37695;52.960;6.188;2024-01-30T19:52:07;7.30;99.90
51615;DHT22;37695;52.960;6.188;2024-01-30T19:54:37;6.70;99.90
51615;DHT22;37695;52.960;6.188;2024-01-30T19:57:05;6.80;99.90
51615;DHT22;37695;52.960;6.188;2024-01-30T19:59:30;6.60;99.90
51615;DHT22;37695;52.960;6.188;2024-01-30T20:02:00;6.70;99.90
51615;DHT22;37695;52.960;6.188;2024-01-30T20:04:26;6.70;99.90
51615;DHT22;37695;52.960;6.188;2024-01-30T20:06:52;6.60;99.90
51615;DHT22;37695;52.960;6.188;2024-01-30T20:09:18;6.70;99.90
51615;DHT22;37695;52.960;6.188;2024-01-30T20:11:44;6.70;99.90
51615;DHT22;37695;52.960;6.188;2024-01-30T20:14:09;6.70;99.90
51615;DHT22;37695;52.960;6.188;2024-01-30T20:16:39;6.70;99.90
51615;DHT22;37695;52.960;6.188;2024-01-30T20:19:05;6.70;99.90
51615;DHT22;37695;52.960;6.188;2024-01-30T20:21:31;6.60;99.90
51615;DHT22;37695;52.960;6.188;2024-01-30T20:23:57;6.60;99.90
51615;DHT22;37695;52.960;6.188;2024-01-30T20:26:23;6.60;99.90
51615;DHT22;37695;52.960;6.188;2024-01-30T20:28:49;8.10;99.90
51615;DHT22;37695;52.960;6.188;2024-01-30T20:31:18;6.60;99.90
51615;DHT22;37695;52.960;6.188;2024-01-30T20:33:44;6.60;99.90
51615;DHT22;37695;52.960;6.188;2024-01-30T20:36:10;6.50;99.90
51615;DHT22;37695;52.960;6.188;2024-01-30T20:38:36;6.60;99.90
51615;DHT22;37695;52.960;6.188;2024-01-30T20:41:03;6.50;99.90
51615;DHT22;37695;52.960;6.188;2024-01-30T20:43:30;6.50;99.90
51615;DHT22;37695;52.960;6.188;2024-01-30T20:45:55;6.30;99.90
51615;DHT22;37695;52.960;6.188;2024-01-30T20:48:22;7.70;99.90
51615;DHT22;37695;52.960;6.188;2024-01-30T20:50:48;7.90;99.90
51615;DHT22;37695;52.960;6.188;2024-01-30T20:53:14;6.70;99.90
51615;DHT22;37695;52.960;6.188;2024-01-30T20:55:39;6.40;99.90
51615;DHT22;37695;52.960;6.188;2024-01-30T20:58:05;6.40;99.90
51615;DHT22;37695;52.960;6.188;2024-01-30T21:00:30;6.40;99.90
51615;DHT22;37695;52.960;6.188;2024-01-30T21:02:56;6.40;99.90
51615;DHT22;37695;52.960;6.188;2024-01-30T21:05:22;7.80;99.90
51615;DHT22;37695;52.960;6.188;2024-01-30T21:07:50;6.40;99.90
51615;DHT22;37695;52.960;6.188;2024-01-30T21:10:15;6.20;99.90
51615;DHT22;37695;52.960;6.188;2024-01-30T21:12:41;8.00;99.90
51615;DHT22;37695;52.960;6.188;2024-01-30T21:15:09;6.20;99.90
51615;DHT22;37695;52.960;6.188;2024-01-30T21:17:35;6.10;99.90
51615;DHT22;37695;52.960;6.188;2024-01-30T21:20:01;6.10;99.90
51615;DHT22;37695;52.960;6.188;2024-01-30T21:22:27;6.30;99.90
51615;DHT22;37695;52.960;6.188;2024-01-30T21:24:52;6.10;99.90
51615;DHT22;37695;52.960;6.188;2024-01-30T21:27:18;6.00;99.90
51615;DHT22;37695;52.960;6.188;2024-01-30T21:29:44;7.80;99.90
51615;DHT22;37695;52.960;6.188;2024-01-30T21:32:11;6.10;99.90
51615;DHT22;37695;52.960;6.188;2024-01-30T21:34:37;6.10;99.90
51615;DHT22;37695;52.960;6.188;2024-01-30T21:37:02;6.20;99.90
51615;DHT22;37695;52.960;6.188;2024-01-30T21:39:28;5.90;99.90
51615;DHT22;37695;52.960;6.188;2024-01-30T21:41:54;7.20;99.90
51615;DHT22;37695;52.960;6.188;2024-01-30T21:44:19;6.50;99.90
51615;DHT22;37695;52.960;6.188;2024-01-30T21:46:45;7.50;99.90
51615;DHT22;37695;52.960;6.188;2024-01-30T21:49:11;5.90;99.90
51615;DHT22;37695;52.960;6.188;2024-01-30T21:51:36;6.10;99.90
51615;DHT22;37695;52.960;6.188;2024-01-30T21:54:02;6.00;99.90
51615;DHT22;37695;52.960;6.188;2024-01-30T21:56:29;5.80;99.90
51615;DHT22;37695;52.960;6.188;2024-01-30T21:58:55;5.90;99.90
51615;DHT22;37695;52.960;6.188;2024-01-30T22:01:21;6.80;99.90
51615;DHT22;37695;52.960;6.188;2024-01-30T22:03:47;6.10;99.90
51615;DHT22;37695;52.960;6.188;2024-01-30T22:06:14;6.50;99.90
51615;DHT22;37695;52.960;6.188;2024-01-30T22:08:41;7.30;99.90
51615;DHT22;37695;52.960;6.188;2024-01-30T22:11:07;6.40;99.90
51615;DHT22;37695;52.960;6.188;2024-01-30T22:13:34;5.80;99.90
51615;DHT22;37695;52.960;6.188;2024-01-30T22:16:00;5.70;99.90
51615;DHT22;37695;52.960;6.188;2024-01-30T22:18:25;6.00;99.90
51615;DHT22;37695;52.960;6.188;2024-01-30T22:20:51;6.40;99.90
51615;DHT22;37695;52.960;6.188;2024-01-30T22:23:17;6.40;99.90
51615;DHT22;37695;52.960;6.188;2024-01-30T22:25:42;6.30;99.90
51615;DHT22;37695;52.960;6.188;2024-01-30T22:28:08;6.00;99.90
51615;DHT22;37695;52.960;6.188;2024-01-30T22:30:35;5.80;99.90
51615;DHT22;37695;52.960;6.188;2024-01-30T22:33:01;5.90;99.90
51615;DHT22;37695;52.960;6.188;2024-01-30T22:35:27;5.70;99.90
51615;DHT22;37695;52.960;6.188;2024-01-30T22:37:52;6.40;99.90
51615;DHT22;37695;52.960;6.188;2024-01-30T22:40:18;5.80;99.90
51615;DHT22;37695;52.960;6.188;2024-01-30T22:42:44;6.20;99.90
51615;DHT22;37695;52.960;6.188;2024-01-30T22:45:10;6.40;99.90
51615;DHT22;37695;52.960;6.188;2024-01-30T22:47:36;6.10;99.90
51615;DHT22;37695;52.960;6.188;2024-01-30T22:50:01;5.80;99.90
51615;DHT22;37695;52.960;6.188;2024-01-30T22:52:27;5.70;99.90
51615;DHT22;37695;52.960;6.188;2024-01-30T22:54:52;5.90;99.90
51615;DHT22;37695;52.960;6.188;2024-01-30T22:57:18;6.00;99.90
51615;DHT22;37695;52.960;6.188;2024-01-30T22:59:44;5.90;99.90
51615;DHT22;37695;52.960;6.188;2024-01-30T23:02:09;6.20;99.90
51615;DHT22;37695;52.960;6.188;2024-01-30T23:04:35;5.70;99.90
51615;DHT22;37695;52.960;6.188;2024-01-30T23:07:01;5.80;99.90
51615;DHT22;37695;52.960;6.188;2024-01-30T23:09:27;5.70;99.90
51615;DHT22;37695;52.960;6.188;2024-01-30T23:11:52;6.10;99.90
51615;DHT22;37695;52.960;6.188;2024-01-30T23:14:18;5.70;99.90
51615;DHT22;37695;52.960;6.188;2024-01-30T23:16:44;6.20;99.90
51615;DHT22;37695;52.960;6.188;2024-01-30T23:19:10;6.20;99.90
51615;DHT22;37695;52.960;6.188;2024-01-30T23:21:36;6.10;99.90
51615;DHT22;37695;52.960;6.188;2024-01-30T23:24:02;5.60;99.90
51615;DHT22;37695;52.960;6.188;2024-01-30T23:26:28;5.70;99.90
51615;DHT22;37695;52.960;6.188;2024-01-30T23:28:53;6.30;99.90
51615;DHT22;37695;52.960;6.188;2024-01-30T23:31:19;6.20;99.90
51615;DHT22;37695;52.960;6.188;2024-01-30T23:33:47;5.70;99.90
51615;DHT22;37695;52.960;6.188;2024-01-30T23:36:13;6.70;99.90
51615;DHT22;37695;52.960;6.188;2024-01-30T23:38:38;7.10;99.90
51615;DHT22;37695;52.960;6.188;2024-01-30T23:41:04;6.40;99.90
51615;DHT22;37695;52.960;6.188;2024-01-30T23:43:30;5.70;99.90
51615;DHT22;37695;52.960;6.188;2024-01-30T23:45:55;6.20;99.90
51615;DHT22;37695;52.960;6.188;2024-01-30T23:48:21;6.00;99.90
51615;DHT22;37695;52.960;6.188;2024-01-30T23:50:47;6.20;99.90
51615;DHT22;37695;52.960;6.188;2024-01-30T23:53:12;7.50;99.90
51615;DHT22;37695;52.960;6.188;2024-01-30T23:55:38;6.40;99.90
51615;DHT22;37695;52.960;6.188;2024-01-30T23:58:04;6.40;99.90
